sensor_id;sensor_type;location;lat;lon;timestamp;temperature;humidity
36322;DHT22;23564;48.290;11.460;2022-11-18T00:00:30;7.90;11.80
36322;DHT22;23564;48.290;11.460;2022-11-18T00:02:56;7.90;11.50
36322;DHT22;23564;48.290;11.460;2022-11-18T00:05:22;8.00;7.80
36322;DHT22;23564;48.290;11.460;2022-11-18T00:07:47;8.00;4.30
36322;DHT22;23564;48.290;11.460;2022-11-18T00:10:13;8.00;2.80
36322;DHT22;23564;48.290;11.460;2022-11-18T00:12:38;7.90;1.00
36322;DHT22;23564;48.290;11.460;2022-11-18T00:15:23;7.90;7.50
36322;DHT22;23564;48.290;11.460;2022-11-18T00:17:48;7.90;6.70
36322;DHT22;23564;48.290;11.460;2022-11-18T00:20:14;7.90;1.70
36322;DHT22;23564;48.290;11.460;2022-11-18T00:22:40;7.90;2.30
36322;DHT22;23564;48.290;11.460;2022-11-18T00:25:06;7.90;2.60
36322;DHT22;23564;48.290;11.460;2022-11-18T00:27:31;7.90;2.90
36322;DHT22;23564;48.290;11.460;2022-11-18T00:29:57;7.90;1.50
36322;DHT22;23564;48.290;11.460;2022-11-18T00:32:23;7.90;1.10
36322;DHT22;23564;48.290;11.460;2022-11-18T00:34:48;7.90;1.30
36322;DHT22;23564;48.290;11.460;2022-11-18T00:37:14;7.90;1.00
36322;DHT22;23564;48.290;11.460;2022-11-18T00:39:40;7.90;4.80
36322;DHT22;23564;48.290;11.460;2022-11-18T00:42:05;7.90;3.40
36322;DHT22;23564;48.290;11.460;2022-11-18T00:44:49;8.00;5.00
36322;DHT22;23564;48.290;11.460;2022-11-18T00:47:15;7.90;7.50
36322;DHT22;23564;48.290;11.460;2022-11-18T00:49:41;8.00;5.90
36322;DHT22;23564;48.290;11.460;2022-11-18T00:52:06;8.00;3.60
36322;DHT22;23564;48.290;11.460;2022-11-18T00:54:32;8.00;4.70
36322;DHT22;23564;48.290;11.460;2022-11-18T00:56:58;8.00;2.90
36322;DHT22;23564;48.290;11.460;2022-11-18T00:59:24;8.00;1.10
36322;DHT22;23564;48.290;11.460;2022-11-18T01:01:49;8.00;1.00
36322;DHT22;23564;48.290;11.460;2022-11-18T01:04:15;8.00;1.00
36322;DHT22;23564;48.290;11.460;2022-11-18T01:06:41;8.00;1.00
36322;DHT22;23564;48.290;11.460;2022-11-18T01:09:07;8.00;1.00
36322;DHT22;23564;48.290;11.460;2022-11-18T01:11:32;8.00;1.00
36322;DHT22;23564;48.290;11.460;2022-11-18T01:14:16;8.00;1.00
36322;DHT22;23564;48.290;11.460;2022-11-18T01:16:42;7.90;1.00
36322;DHT22;23564;48.290;11.460;2022-11-18T01:19:08;7.90;1.20
36322;DHT22;23564;48.290;11.460;2022-11-18T01:21:33;7.90;7.30
36322;DHT22;23564;48.290;11.460;2022-11-18T01:23:59;7.90;4.90
36322;DHT22;23564;48.290;11.460;2022-11-18T01:26:24;7.90;6.90
36322;DHT22;23564;48.290;11.460;2022-11-18T01:28:54;7.90;7.60
36322;DHT22;23564;48.290;11.460;2022-11-18T01:31:19;7.90;5.80
36322;DHT22;23564;48.290;11.460;2022-11-18T01:33:45;7.90;6.20
36322;DHT22;23564;48.290;11.460;2022-11-18T01:36:25;7.90;2.10
36322;DHT22;23564;48.290;11.460;2022-11-18T01:38:52;7.90;2.20
36322;DHT22;23564;48.290;11.460;2022-11-18T01:41:20;7.90;1.00
36322;DHT22;23564;48.290;11.460;2022-11-18T01:43:56;7.90;1.00
36322;DHT22;23564;48.290;11.460;2022-11-18T01:46:24;7.90;1.00
36322;DHT22;23564;48.290;11.460;2022-11-18T01:48:58;7.80;1.00
36322;DHT22;23564;48.290;11.460;2022-11-18T01:51:40;7.90;1.00
36322;DHT22;23564;48.290;11.460;2022-11-18T01:54:16;7.80;1.00
36322;DHT22;23564;48.290;11.460;2022-11-18T01:56:45;7.80;1.00
36322;DHT22;23564;48.290;11.460;2022-11-18T01:59:15;7.80;1.00
36322;DHT22;23564;48.290;11.460;2022-11-18T02:01:41;7.80;1.00
36322;DHT22;23564;48.290;11.460;2022-11-18T02:04:08;7.80;1.00
36322;DHT22;23564;48.290;11.460;2022-11-18T02:06:35;7.80;1.00
36322;DHT22;23564;48.290;11.460;2022-11-18T02:09:01;7.80;3.00
36322;DHT22;23564;48.290;11.460;2022-11-18T02:11:26;7.80;1.60
36322;DHT22;23564;48.290;11.460;2022-11-18T02:14:10;7.80;1.00
36322;DHT22;23564;48.290;11.460;2022-11-18T02:19:31;7.80;10.60
36322;DHT22;23564;48.290;11.460;2022-11-18T02:25:20;7.70;1.00
36322;DHT22;23564;48.290;11.460;2022-11-18T02:28:23;7.70;1.00
36322;DHT22;23564;48.290;11.460;2022-11-18T02:31:01;7.70;1.40
36322;DHT22;23564;48.290;11.460;2022-11-18T02:36:04;7.70;1.00
36322;DHT22;23564;48.290;11.460;2022-11-18T02:38:42;7.70;1.00
36322;DHT22;23564;48.290;11.460;2022-11-18T02:41:13;7.70;1.00
36322;DHT22;23564;48.290;11.460;2022-11-18T02:43:46;7.70;1.00
36322;DHT22;23564;48.290;11.460;2022-11-18T02:46:20;7.70;1.00
36322;DHT22;23564;48.290;11.460;2022-11-18T02:48:49;7.70;3.50
36322;DHT22;23564;48.290;11.460;2022-11-18T02:51:20;7.70;1.00
36322;DHT22;23564;48.290;11.460;2022-11-18T02:53:48;7.70;1.00
36322;DHT22;23564;48.290;11.460;2022-11-18T02:56:16;7.70;1.00
36322;DHT22;23564;48.290;11.460;2022-11-18T02:58:43;7.70;1.00
36322;DHT22;23564;48.290;11.460;2022-11-18T03:01:17;7.70;2.60
36322;DHT22;23564;48.290;11.460;2022-11-18T03:03:43;7.70;10.20
36322;DHT22;23564;48.290;11.460;2022-11-18T03:06:27;7.80;9.10
36322;DHT22;23564;48.290;11.460;2022-11-18T03:09:02;7.70;10.10
36322;DHT22;23564;48.290;11.460;2022-11-18T03:11:55;7.70;8.20
36322;DHT22;23564;48.290;11.460;2022-11-18T03:14:42;7.70;12.40
36322;DHT22;23564;48.290;11.460;2022-11-18T03:20:25;7.70;15.30
36322;DHT22;23564;48.290;11.460;2022-11-18T03:23:13;7.60;15.40
36322;DHT22;23564;48.290;11.460;2022-11-18T03:25:54;7.70;13.80
36322;DHT22;23564;48.290;11.460;2022-11-18T03:28:35;7.70;14.30
36322;DHT22;23564;48.290;11.460;2022-11-18T03:31:16;7.70;10.80
36322;DHT22;23564;48.290;11.460;2022-11-18T03:34:37;7.70;6.50
36322;DHT22;23564;48.290;11.460;2022-11-18T03:36:40;7.70;4.90
36322;DHT22;23564;48.290;11.460;2022-11-18T03:39:09;7.70;5.00
36322;DHT22;23564;48.290;11.460;2022-11-18T03:41:45;7.70;8.40
36322;DHT22;23564;48.290;11.460;2022-11-18T03:44:15;7.70;9.10
36322;DHT22;23564;48.290;11.460;2022-11-18T03:46:49;7.70;8.50
36322;DHT22;23564;48.290;11.460;2022-11-18T03:49:21;7.70;7.20
36322;DHT22;23564;48.290;11.460;2022-11-18T03:51:57;7.70;10.50
36322;DHT22;23564;48.290;11.460;2022-11-18T03:54:29;7.70;14.90
36322;DHT22;23564;48.290;11.460;2022-11-18T03:57:02;7.60;15.40
36322;DHT22;23564;48.290;11.460;2022-11-18T03:59:36;7.60;14.30
36322;DHT22;23564;48.290;11.460;2022-11-18T04:02:10;7.60;16.00
36322;DHT22;23564;48.290;11.460;2022-11-18T04:04:37;7.60;16.30
36322;DHT22;23564;48.290;11.460;2022-11-18T04:10:24;7.60;15.80
36322;DHT22;23564;48.290;11.460;2022-11-18T04:15:37;7.60;15.90
36322;DHT22;23564;48.290;11.460;2022-11-18T04:18:03;7.60;17.70
36322;DHT22;23564;48.290;11.460;2022-11-18T04:20:29;7.60;16.70
36322;DHT22;23564;48.290;11.460;2022-11-18T04:22:56;7.60;16.90
36322;DHT22;23564;48.290;11.460;2022-11-18T04:25:22;7.60;16.90
36322;DHT22;23564;48.290;11.460;2022-11-18T04:27:49;7.60;16.40
36322;DHT22;23564;48.290;11.460;2022-11-18T04:30:15;7.60;16.70
36322;DHT22;23564;48.290;11.460;2022-11-18T04:32:40;7.60;15.30
36322;DHT22;23564;48.290;11.460;2022-11-18T04:35:06;7.70;16.20
36322;DHT22;23564;48.290;11.460;2022-11-18T04:37:32;7.70;14.00
36322;DHT22;23564;48.290;11.460;2022-11-18T04:39:57;7.60;13.90
36322;DHT22;23564;48.290;11.460;2022-11-18T04:42:23;7.60;14.20
36322;DHT22;23564;48.290;11.460;2022-11-18T04:44:48;7.70;14.40
36322;DHT22;23564;48.290;11.460;2022-11-18T04:47:14;7.70;13.60
36322;DHT22;23564;48.290;11.460;2022-11-18T04:49:40;7.70;13.20
36322;DHT22;23564;48.290;11.460;2022-11-18T04:52:05;7.60;11.40
36322;DHT22;23564;48.290;11.460;2022-11-18T04:54:31;7.60;12.70
36322;DHT22;23564;48.290;11.460;2022-11-18T04:56:57;7.60;11.10
36322;DHT22;23564;48.290;11.460;2022-11-18T04:59:25;7.60;11.00
36322;DHT22;23564;48.290;11.460;2022-11-18T05:01:52;7.60;12.60
36322;DHT22;23564;48.290;11.460;2022-11-18T05:04:20;7.60;15.10
36322;DHT22;23564;48.290;11.460;2022-11-18T05:06:46;7.60;15.40
36322;DHT22;23564;48.290;11.460;2022-11-18T05:09:12;7.60;11.30
36322;DHT22;23564;48.290;11.460;2022-11-18T05:11:38;7.60;11.80
36322;DHT22;23564;48.290;11.460;2022-11-18T05:14:25;7.60;12.70
36322;DHT22;23564;48.290;11.460;2022-11-18T05:16:51;7.60;13.70
36322;DHT22;23564;48.290;11.460;2022-11-18T05:19:17;7.60;15.20
36322;DHT22;23564;48.290;11.460;2022-11-18T05:21:43;7.60;14.80
36322;DHT22;23564;48.290;11.460;2022-11-18T05:24:08;7.60;15.00
36322;DHT22;23564;48.290;11.460;2022-11-18T05:26:34;7.60;14.10
36322;DHT22;23564;48.290;11.460;2022-11-18T05:29:00;7.50;13.70
36322;DHT22;23564;48.290;11.460;2022-11-18T05:31:25;7.60;16.70
36322;DHT22;23564;48.290;11.460;2022-11-18T05:33:51;7.60;17.00
36322;DHT22;23564;48.290;11.460;2022-11-18T05:36:19;7.50;14.80
36322;DHT22;23564;48.290;11.460;2022-11-18T05:38:45;7.40;13.80
36322;DHT22;23564;48.290;11.460;2022-11-18T05:41:11;7.40;14.70
36322;DHT22;23564;48.290;11.460;2022-11-18T05:44:00;7.40;14.50
36322;DHT22;23564;48.290;11.460;2022-11-18T05:46:26;7.40;15.00
36322;DHT22;23564;48.290;11.460;2022-11-18T05:48:52;7.40;16.30
36322;DHT22;23564;48.290;11.460;2022-11-18T05:51:18;7.30;14.70
36322;DHT22;23564;48.290;11.460;2022-11-18T05:53:44;7.40;16.00
36322;DHT22;23564;48.290;11.460;2022-11-18T05:56:29;7.40;14.20
36322;DHT22;23564;48.290;11.460;2022-11-18T05:58:55;7.30;12.10
36322;DHT22;23564;48.290;11.460;2022-11-18T06:02:06;7.30;10.80
36322;DHT22;23564;48.290;11.460;2022-11-18T06:04:38;7.30;8.20
36322;DHT22;23564;48.290;11.460;2022-11-18T06:07:09;7.30;8.70
36322;DHT22;23564;48.290;11.460;2022-11-18T06:09:39;7.30;5.50
36322;DHT22;23564;48.290;11.460;2022-11-18T06:12:08;7.30;3.80
36322;DHT22;23564;48.290;11.460;2022-11-18T06:14:45;7.40;3.00
36322;DHT22;23564;48.290;11.460;2022-11-18T06:17:18;7.30;1.00
36322;DHT22;23564;48.290;11.460;2022-11-18T06:19:44;7.30;1.00
36322;DHT22;23564;48.290;11.460;2022-11-18T06:22:10;7.30;1.00
36322;DHT22;23564;48.290;11.460;2022-11-18T06:24:37;7.40;1.00
36322;DHT22;23564;48.290;11.460;2022-11-18T06:27:03;7.30;1.00
36322;DHT22;23564;48.290;11.460;2022-11-18T06:29:30;7.40;1.00
36322;DHT22;23564;48.290;11.460;2022-11-18T06:31:55;7.40;1.00
36322;DHT22;23564;48.290;11.460;2022-11-18T06:34:21;7.40;1.00
36322;DHT22;23564;48.290;11.460;2022-11-18T06:36:46;7.40;1.00
36322;DHT22;23564;48.290;11.460;2022-11-18T06:39:12;7.40;1.00
36322;DHT22;23564;48.290;11.460;2022-11-18T06:41:37;7.40;1.00
36322;DHT22;23564;48.290;11.460;2022-11-18T06:44:03;7.40;1.00
36322;DHT22;23564;48.290;11.460;2022-11-18T06:46:29;7.40;1.00
36322;DHT22;23564;48.290;11.460;2022-11-18T06:49:13;7.50;1.40
36322;DHT22;23564;48.290;11.460;2022-11-18T06:51:38;7.40;1.00
36322;DHT22;23564;48.290;11.460;2022-11-18T06:54:04;7.50;1.00
36322;DHT22;23564;48.290;11.460;2022-11-18T06:56:30;7.50;1.00
36322;DHT22;23564;48.290;11.460;2022-11-18T06:58:57;7.50;1.00
36322;DHT22;23564;48.290;11.460;2022-11-18T07:01:28;7.50;1.00
36322;DHT22;23564;48.290;11.460;2022-11-18T07:03:54;7.50;1.00
36322;DHT22;23564;48.290;11.460;2022-11-18T07:06:24;7.50;1.00
36322;DHT22;23564;48.290;11.460;2022-11-18T07:08:50;7.50;1.00
36322;DHT22;23564;48.290;11.460;2022-11-18T07:11:19;7.50;1.00
36322;DHT22;23564;48.290;11.460;2022-11-18T07:13:45;7.50;1.00
36322;DHT22;23564;48.290;11.460;2022-11-18T07:16:13;7.50;1.00
36322;DHT22;23564;48.290;11.460;2022-11-18T07:18:41;7.50;1.00
36322;DHT22;23564;48.290;11.460;2022-11-18T07:21:18;7.50;1.00
36322;DHT22;23564;48.290;11.460;2022-11-18T07:23:44;7.50;1.00
36322;DHT22;23564;48.290;11.460;2022-11-18T07:26:10;7.60;2.30
36322;DHT22;23564;48.290;11.460;2022-11-18T07:28:36;7.60;1.00
36322;DHT22;23564;48.290;11.460;2022-11-18T07:31:12;7.60;1.00
36322;DHT22;23564;48.290;11.460;2022-11-18T07:33:39;7.60;1.00
36322;DHT22;23564;48.290;11.460;2022-11-18T07:36:06;7.60;1.00
36322;DHT22;23564;48.290;11.460;2022-11-18T07:38:32;7.60;1.00
36322;DHT22;23564;48.290;11.460;2022-11-18T07:41:12;7.60;1.00
36322;DHT22;23564;48.290;11.460;2022-11-18T07:43:38;7.60;1.00
36322;DHT22;23564;48.290;11.460;2022-11-18T07:46:42;7.60;1.00
36322;DHT22;23564;48.290;11.460;2022-11-18T07:49:09;7.60;1.00
36322;DHT22;23564;48.290;11.460;2022-11-18T07:51:37;7.60;1.00
36322;DHT22;23564;48.290;11.460;2022-11-18T07:54:11;7.60;1.00
36322;DHT22;23564;48.290;11.460;2022-11-18T07:56:36;7.60;1.00
36322;DHT22;23564;48.290;11.460;2022-11-18T07:59:02;7.50;1.00
36322;DHT22;23564;48.290;11.460;2022-11-18T08:01:29;7.50;1.00
36322;DHT22;23564;48.290;11.460;2022-11-18T08:03:56;7.60;1.00
36322;DHT22;23564;48.290;11.460;2022-11-18T08:06:22;7.60;1.00
36322;DHT22;23564;48.290;11.460;2022-11-18T08:08:48;7.60;1.00
36322;DHT22;23564;48.290;11.460;2022-11-18T08:11:16;7.50;1.00
36322;DHT22;23564;48.290;11.460;2022-11-18T08:13:42;7.60;1.00
36322;DHT22;23564;48.290;11.460;2022-11-18T08:16:16;7.60;1.00
36322;DHT22;23564;48.290;11.460;2022-11-18T08:18:42;7.60;1.00
36322;DHT22;23564;48.290;11.460;2022-11-18T08:21:09;7.50;1.00
36322;DHT22;23564;48.290;11.460;2022-11-18T08:23:34;7.50;1.00
36322;DHT22;23564;48.290;11.460;2022-11-18T08:26:14;7.50;1.00
36322;DHT22;23564;48.290;11.460;2022-11-18T08:28:40;7.40;1.00
36322;DHT22;23564;48.290;11.460;2022-11-18T08:31:17;7.40;1.00
36322;DHT22;23564;48.290;11.460;2022-11-18T08:33:44;7.40;1.00
36322;DHT22;23564;48.290;11.460;2022-11-18T08:36:14;7.30;1.00
36322;DHT22;23564;48.290;11.460;2022-11-18T08:38:40;7.30;1.00
36322;DHT22;23564;48.290;11.460;2022-11-18T08:41:06;7.30;1.00
36322;DHT22;23564;48.290;11.460;2022-11-18T08:43:34;7.30;1.00
36322;DHT22;23564;48.290;11.460;2022-11-18T08:46:00;7.30;1.00
36322;DHT22;23564;48.290;11.460;2022-11-18T08:48:26;7.30;1.00
36322;DHT22;23564;48.290;11.460;2022-11-18T08:50:52;7.30;1.00
36322;DHT22;23564;48.290;11.460;2022-11-18T08:53:17;7.30;1.00
36322;DHT22;23564;48.290;11.460;2022-11-18T08:55:43;7.40;1.00
36322;DHT22;23564;48.290;11.460;2022-11-18T08:58:08;7.40;1.00
36322;DHT22;23564;48.290;11.460;2022-11-18T09:00:34;7.40;1.00
36322;DHT22;23564;48.290;11.460;2022-11-18T09:03:00;7.50;1.00
36322;DHT22;23564;48.290;11.460;2022-11-18T09:05:25;7.40;1.00
36322;DHT22;23564;48.290;11.460;2022-11-18T09:07:51;7.50;1.00
36322;DHT22;23564;48.290;11.460;2022-11-18T09:10:16;7.60;1.00
36322;DHT22;23564;48.290;11.460;2022-11-18T09:12:42;7.60;1.00
36322;DHT22;23564;48.290;11.460;2022-11-18T09:15:08;7.60;1.00
36322;DHT22;23564;48.290;11.460;2022-11-18T09:17:33;7.60;1.00
36322;DHT22;23564;48.290;11.460;2022-11-18T09:19:59;7.60;1.00
36322;DHT22;23564;48.290;11.460;2022-11-18T09:22:25;7.60;1.00
36322;DHT22;23564;48.290;11.460;2022-11-18T09:24:50;7.70;1.00
36322;DHT22;23564;48.290;11.460;2022-11-18T09:27:16;7.70;1.00
36322;DHT22;23564;48.290;11.460;2022-11-18T09:29:41;7.80;1.00
36322;DHT22;23564;48.290;11.460;2022-11-18T09:32:07;7.90;1.00
36322;DHT22;23564;48.290;11.460;2022-11-18T09:34:33;7.90;1.00
36322;DHT22;23564;48.290;11.460;2022-11-18T09:37:02;7.90;1.00
36322;DHT22;23564;48.290;11.460;2022-11-18T09:39:30;8.00;1.00
36322;DHT22;23564;48.290;11.460;2022-11-18T09:47:34;8.20;1.00
36322;DHT22;23564;48.290;11.460;2022-11-18T09:50:32;8.20;1.00
36322;DHT22;23564;48.290;11.460;2022-11-18T09:53:16;8.10;1.00
36322;DHT22;23564;48.290;11.460;2022-11-18T09:55:43;8.00;1.00
36322;DHT22;23564;48.290;11.460;2022-11-18T09:58:31;7.90;1.00
36322;DHT22;23564;48.290;11.460;2022-11-18T10:00:58;7.90;1.00
36322;DHT22;23564;48.290;11.460;2022-11-18T10:03:27;7.80;1.00
36322;DHT22;23564;48.290;11.460;2022-11-18T10:06:03;7.70;1.00
36322;DHT22;23564;48.290;11.460;2022-11-18T10:08:40;7.70;1.00
36322;DHT22;23564;48.290;11.460;2022-11-18T10:16:53;7.90;1.00
36322;DHT22;23564;48.290;11.460;2022-11-18T10:19:32;8.00;1.00
36322;DHT22;23564;48.290;11.460;2022-11-18T10:24:54;8.10;1.00
36322;DHT22;23564;48.290;11.460;2022-11-18T10:27:21;8.10;1.00
36322;DHT22;23564;48.290;11.460;2022-11-18T10:29:51;8.20;1.00
36322;DHT22;23564;48.290;11.460;2022-11-18T10:32:18;8.20;1.00
36322;DHT22;23564;48.290;11.460;2022-11-18T10:34:55;8.20;1.00
36322;DHT22;23564;48.290;11.460;2022-11-18T10:37:26;8.20;1.00
36322;DHT22;23564;48.290;11.460;2022-11-18T10:40:00;8.10;1.00
36322;DHT22;23564;48.290;11.460;2022-11-18T10:42:41;8.00;1.00
36322;DHT22;23564;48.290;11.460;2022-11-18T10:45:30;8.00;1.00
36322;DHT22;23564;48.290;11.460;2022-11-18T10:48:16;7.90;1.00
36322;DHT22;23564;48.290;11.460;2022-11-18T10:50:47;7.90;1.00
36322;DHT22;23564;48.290;11.460;2022-11-18T10:56:03;8.00;1.00
36322;DHT22;23564;48.290;11.460;2022-11-18T10:58:31;8.00;1.00
36322;DHT22;23564;48.290;11.460;2022-11-18T11:01:19;8.10;1.00
36322;DHT22;23564;48.290;11.460;2022-11-18T11:04:00;8.10;1.00
36322;DHT22;23564;48.290;11.460;2022-11-18T11:06:28;8.20;1.00
36322;DHT22;23564;48.290;11.460;2022-11-18T11:09:00;8.20;1.00
36322;DHT22;23564;48.290;11.460;2022-11-18T11:11:28;8.10;1.00
36322;DHT22;23564;48.290;11.460;2022-11-18T11:14:03;8.10;1.00
36322;DHT22;23564;48.290;11.460;2022-11-18T11:16:33;8.20;1.00
36322;DHT22;23564;48.290;11.460;2022-11-18T11:19:02;8.20;1.00
36322;DHT22;23564;48.290;11.460;2022-11-18T11:21:30;8.20;1.00
36322;DHT22;23564;48.290;11.460;2022-11-18T11:23:55;8.20;1.00
36322;DHT22;23564;48.290;11.460;2022-11-18T11:26:45;8.10;1.00
36322;DHT22;23564;48.290;11.460;2022-11-18T11:31:54;7.80;1.00
36322;DHT22;23564;48.290;11.460;2022-11-18T11:34:31;7.80;1.00
36322;DHT22;23564;48.290;11.460;2022-11-18T11:40:15;7.60;1.00
36322;DHT22;23564;48.290;11.460;2022-11-18T11:45:51;7.60;1.00
36322;DHT22;23564;48.290;11.460;2022-11-18T11:51:30;7.60;1.00
36322;DHT22;23564;48.290;11.460;2022-11-18T11:56:54;7.60;1.00
36322;DHT22;23564;48.290;11.460;2022-11-18T12:05:28;7.60;1.00
36322;DHT22;23564;48.290;11.460;2022-11-18T12:10:43;7.60;1.00
36322;DHT22;23564;48.290;11.460;2022-11-18T12:19:00;7.40;1.00
36322;DHT22;23564;48.290;11.460;2022-11-18T12:26:45;7.30;1.00
36322;DHT22;23564;48.290;11.460;2022-11-18T12:29:22;7.30;1.00
36322;DHT22;23564;48.290;11.460;2022-11-18T12:31:52;7.30;1.00
36322;DHT22;23564;48.290;11.460;2022-11-18T12:34:46;7.20;1.00
36322;DHT22;23564;48.290;11.460;2022-11-18T12:40:02;7.30;1.00
36322;DHT22;23564;48.290;11.460;2022-11-18T12:42:45;7.20;1.00
36322;DHT22;23564;48.290;11.460;2022-11-18T12:50:53;7.10;1.00
36322;DHT22;23564;48.290;11.460;2022-11-18T12:53:38;7.00;1.00
36322;DHT22;23564;48.290;11.460;2022-11-18T12:58:55;6.90;1.00
36322;DHT22;23564;48.290;11.460;2022-11-18T13:01:26;6.80;1.00
36322;DHT22;23564;48.290;11.460;2022-11-18T13:04:22;6.70;1.00
36322;DHT22;23564;48.290;11.460;2022-11-18T13:06:50;6.70;1.00
36322;DHT22;23564;48.290;11.460;2022-11-18T13:09:22;6.70;1.00
36322;DHT22;23564;48.290;11.460;2022-11-18T13:11:58;6.70;1.00
36322;DHT22;23564;48.290;11.460;2022-11-18T13:22:51;6.80;1.00
36322;DHT22;23564;48.290;11.460;2022-11-18T13:25:36;6.80;1.00
36322;DHT22;23564;48.290;11.460;2022-11-18T13:30:35;6.80;1.00
36322;DHT22;23564;48.290;11.460;2022-11-18T13:33:01;6.90;1.00
36322;DHT22;23564;48.290;11.460;2022-11-18T13:35:27;6.80;1.00
36322;DHT22;23564;48.290;11.460;2022-11-18T13:37:58;6.90;1.00
36322;DHT22;23564;48.290;11.460;2022-11-18T13:40:30;6.90;1.00
36322;DHT22;23564;48.290;11.460;2022-11-18T13:42:56;6.90;1.00
36322;DHT22;23564;48.290;11.460;2022-11-18T13:45:29;6.90;1.00
36322;DHT22;23564;48.290;11.460;2022-11-18T13:47:59;6.90;1.00
36322;DHT22;23564;48.290;11.460;2022-11-18T13:50:32;6.90;1.00
36322;DHT22;23564;48.290;11.460;2022-11-18T13:55:59;6.90;1.00
36322;DHT22;23564;48.290;11.460;2022-11-18T13:58:43;6.90;4.00
36322;DHT22;23564;48.290;11.460;2022-11-18T14:01:14;6.90;1.00
36322;DHT22;23564;48.290;11.460;2022-11-18T14:03:51;7.00;2.90
36322;DHT22;23564;48.290;11.460;2022-11-18T14:06:28;7.00;2.80
36322;DHT22;23564;48.290;11.460;2022-11-18T14:09:18;7.10;1.00
36322;DHT22;23564;48.290;11.460;2022-11-18T14:14:41;7.10;1.00
36322;DHT22;23564;48.290;11.460;2022-11-18T14:17:19;7.20;1.00
36322;DHT22;23564;48.290;11.460;2022-11-18T14:19:47;7.10;1.00
36322;DHT22;23564;48.290;11.460;2022-11-18T14:22:29;7.10;1.00
36322;DHT22;23564;48.290;11.460;2022-11-18T14:25:00;7.20;1.00
36322;DHT22;23564;48.290;11.460;2022-11-18T14:27:41;7.20;1.00
36322;DHT22;23564;48.290;11.460;2022-11-18T14:35:39;7.10;1.00
36322;DHT22;23564;48.290;11.460;2022-11-18T14:38:30;7.20;5.70
36322;DHT22;23564;48.290;11.460;2022-11-18T14:41:00;7.20;10.80
36322;DHT22;23564;48.290;11.460;2022-11-18T14:43:26;7.20;9.10
36322;DHT22;23564;48.290;11.460;2022-11-18T14:45:54;7.20;7.20
36322;DHT22;23564;48.290;11.460;2022-11-18T14:48:22;7.30;11.20
36322;DHT22;23564;48.290;11.460;2022-11-18T14:50:49;7.20;4.60
36322;DHT22;23564;48.290;11.460;2022-11-18T14:53:16;7.30;9.80
36322;DHT22;23564;48.290;11.460;2022-11-18T14:55:43;7.30;10.00
36322;DHT22;23564;48.290;11.460;2022-11-18T14:58:12;7.30;6.10
36322;DHT22;23564;48.290;11.460;2022-11-18T15:00:40;7.20;1.00
36322;DHT22;23564;48.290;11.460;2022-11-18T15:03:06;7.20;7.30
36322;DHT22;23564;48.290;11.460;2022-11-18T15:05:31;7.30;9.20
36322;DHT22;23564;48.290;11.460;2022-11-18T15:07:57;7.30;7.50
36322;DHT22;23564;48.290;11.460;2022-11-18T15:10:22;7.30;5.30
36322;DHT22;23564;48.290;11.460;2022-11-18T15:12:48;7.30;8.80
36322;DHT22;23564;48.290;11.460;2022-11-18T15:15:13;7.30;8.00
36322;DHT22;23564;48.290;11.460;2022-11-18T15:17:39;7.30;2.50
36322;DHT22;23564;48.290;11.460;2022-11-18T15:20:05;7.30;1.00
36322;DHT22;23564;48.290;11.460;2022-11-18T15:22:32;7.30;2.20
36322;DHT22;23564;48.290;11.460;2022-11-18T15:24:58;7.30;1.00
36322;DHT22;23564;48.290;11.460;2022-11-18T15:27:23;7.30;3.80
36322;DHT22;23564;48.290;11.460;2022-11-18T15:29:49;7.30;1.00
36322;DHT22;23564;48.290;11.460;2022-11-18T15:32:15;7.30;1.00
36322;DHT22;23564;48.290;11.460;2022-11-18T15:34:40;7.20;1.00
36322;DHT22;23564;48.290;11.460;2022-11-18T15:37:08;7.20;1.00
36322;DHT22;23564;48.290;11.460;2022-11-18T15:39:34;7.20;1.00
36322;DHT22;23564;48.290;11.460;2022-11-18T15:42:00;7.20;1.00
36322;DHT22;23564;48.290;11.460;2022-11-18T15:44:25;7.30;1.00
36322;DHT22;23564;48.290;11.460;2022-11-18T15:46:51;7.20;1.00
36322;DHT22;23564;48.290;11.460;2022-11-18T15:49:16;7.20;1.00
36322;DHT22;23564;48.290;11.460;2022-11-18T15:51:42;7.10;1.00
36322;DHT22;23564;48.290;11.460;2022-11-18T15:54:08;7.10;1.00
36322;DHT22;23564;48.290;11.460;2022-11-18T15:56:33;7.10;1.00
36322;DHT22;23564;48.290;11.460;2022-11-18T15:59:03;7.20;1.00
36322;DHT22;23564;48.290;11.460;2022-11-18T16:01:34;7.10;1.00
36322;DHT22;23564;48.290;11.460;2022-11-18T16:04:01;7.20;2.20
36322;DHT22;23564;48.290;11.460;2022-11-18T16:06:27;7.10;2.30
36322;DHT22;23564;48.290;11.460;2022-11-18T16:08:52;7.10;1.00
36322;DHT22;23564;48.290;11.460;2022-11-18T16:11:19;7.20;1.00
36322;DHT22;23564;48.290;11.460;2022-11-18T16:14:08;7.20;1.00
36322;DHT22;23564;48.290;11.460;2022-11-18T16:16:35;7.20;1.00
36322;DHT22;23564;48.290;11.460;2022-11-18T16:19:06;7.20;1.00
36322;DHT22;23564;48.290;11.460;2022-11-18T16:21:33;7.10;1.00
36322;DHT22;23564;48.290;11.460;2022-11-18T16:24:01;7.10;1.00
36322;DHT22;23564;48.290;11.460;2022-11-18T16:26:28;7.10;1.00
36322;DHT22;23564;48.290;11.460;2022-11-18T16:28:55;7.00;1.00
36322;DHT22;23564;48.290;11.460;2022-11-18T16:31:21;6.90;1.00
36322;DHT22;23564;48.290;11.460;2022-11-18T16:34:11;7.00;1.00
36322;DHT22;23564;48.290;11.460;2022-11-18T16:36:39;6.90;1.00
36322;DHT22;23564;48.290;11.460;2022-11-18T16:39:10;6.80;1.00
36322;DHT22;23564;48.290;11.460;2022-11-18T16:41:36;6.80;1.00
36322;DHT22;23564;48.290;11.460;2022-11-18T16:44:05;6.80;1.00
36322;DHT22;23564;48.290;11.460;2022-11-18T16:46:32;6.70;1.00
36322;DHT22;23564;48.290;11.460;2022-11-18T16:48:58;6.70;1.00
36322;DHT22;23564;48.290;11.460;2022-11-18T16:51:29;6.70;1.00
36322;DHT22;23564;48.290;11.460;2022-11-18T16:53:57;6.70;7.20
36322;DHT22;23564;48.290;11.460;2022-11-18T16:56:25;6.70;1.00
36322;DHT22;23564;48.290;11.460;2022-11-18T16:59:03;6.80;1.00
36322;DHT22;23564;48.290;11.460;2022-11-18T17:01:30;6.80;1.00
36322;DHT22;23564;48.290;11.460;2022-11-18T17:03:57;6.80;1.00
36322;DHT22;23564;48.290;11.460;2022-11-18T17:06:25;6.80;1.00
36322;DHT22;23564;48.290;11.460;2022-11-18T17:08:51;6.90;1.00
36322;DHT22;23564;48.290;11.460;2022-11-18T17:11:17;6.80;1.00
36322;DHT22;23564;48.290;11.460;2022-11-18T17:13:43;6.80;1.00
36322;DHT22;23564;48.290;11.460;2022-11-18T17:16:20;6.80;1.00
36322;DHT22;23564;48.290;11.460;2022-11-18T17:18:46;6.80;1.00
36322;DHT22;23564;48.290;11.460;2022-11-18T17:21:14;6.80;1.00
36322;DHT22;23564;48.290;11.460;2022-11-18T17:23:42;6.80;1.00
36322;DHT22;23564;48.290;11.460;2022-11-18T17:26:09;6.80;1.00
36322;DHT22;23564;48.290;11.460;2022-11-18T17:28:35;6.80;1.00
36322;DHT22;23564;48.290;11.460;2022-11-18T17:31:10;6.70;1.00
36322;DHT22;23564;48.290;11.460;2022-11-18T17:33:36;6.70;1.00
36322;DHT22;23564;48.290;11.460;2022-11-18T17:36:05;6.70;1.00
36322;DHT22;23564;48.290;11.460;2022-11-18T17:38:34;6.70;1.00
36322;DHT22;23564;48.290;11.460;2022-11-18T17:40:59;6.70;1.00
36322;DHT22;23564;48.290;11.460;2022-11-18T17:43:26;6.70;1.00